Flight Track Log - Related Links

Times and Time Zones

All times are in EDT time to prevent confusion due to time zone crossing. See the N888FM flight status page for this flight to view local times or setup timezone preferences in your user account.

Time Position Orientation Groundspeed Altitude Reporting Facility
EDT Latitude Longitude Course Direction KTS MPH feet Rate Location/Type
Sat 09:23:00 AM 41.7161 -75.9610 340° North  Level Estimated
Sat 09:24:00 AM 41.7736 -75.9824 345° North  Level FlightAware Approximate
Sat 09:25:00 AM 41.8311 -76.0037 345° North  Level FlightAware Approximate
Sat 09:26:00 AM 41.8843 -76.0399 323° Northwest  Level Estimated
Sat 09:27:00 AM 41.9374 -76.0763 324° Northwest  Level Estimated
Sat 09:28:00 AM 41.9921 -76.1083 336° Northwest  Level FlightAware Approximate
Sat 09:29:00 AM 42.0467 -76.1404 336° Northwest  Level FlightAware Approximate
Sat 09:30:00 AM 42.0995 -76.1779 324° Northwest  Level Estimated
Sat 09:31:00 AM 42.1522 -76.2155 324° Northwest  Level Estimated
Sat 09:32:00 AM 42.2047 -76.2537 332° Northwest  Level FlightAware Approximate
Sat 09:33:00 AM 42.2574 -76.2913 340° North  Level Estimated
Sat 09:34:00 AM 42.3102 -76.3289 340° North  Level Estimated
Sat 09:35:00 AM 42.3629 -76.3666 340° North  Level Estimated
Sat 09:36:00 AM 42.4156 -76.4044 340° North  Level Estimated
Sat 09:37:00 AM 42.4683 -76.4422 340° North  Level Estimated
Sat 09:38:00 AM 42.4833 -76.4500 340° North  Level FlightAware Approximate
Sat 09:39:00 AM 42.4914 -76.4587 340° North  Level Estimated
Sat 09:40:00 AM 42.4914 -76.4587 340° North  Level Estimated
Sat 09:41:00 AM 42.4914 -76.4587 340° North  Level Estimated
Sat 09:42:00 AM 42.4914 -76.4587 340° North  Level Estimated
Sat 09:43:00 AM 42.4914 -76.4587 340° North  Level Estimated
Sat 09:44:00 AM 42.4914 -76.4587 340° North  Level Estimated
Sat 09:45:00 AM 42.4914 -76.4587 340° North  Level Estimated
Sat 09:46:00 AM 42.4914 -76.4587 340° North  Level Estimated

Login

Don't have an account? Register now (free) for customized features, flight alerts, and more!